Terminal Aerodrome Forecast
Issued by NWS

Home | Current Version | Previous Version | Text Only | Print | Product List | Glossary On
Versions: 1 2 3 4 5 6 7 8 9 10 11 12 13 14
000
FTUS44 KLIX 262300
TAFMSY
TAF
KMSY 262340Z 2700/2724 10009G16KT P6SM BKN045 BKN060 OVC120
     FM270700 11009KT P6SM OVC015
     FM271000 11008KT 3SM SHRA OVC008
     FM271300 12010KT 3/4SM +SHRA OVC008
     FM272000 16011KT 3/4SM +SHRA OVC008=

USA.gov is the U.S. government's official web portal to all federal, state and local government web resources and services.